createdAt,value
2022-08-17T00:00:42.598Z,29.92
2022-08-17T00:03:04.990Z,37.92
2022-08-17T00:05:36.067Z,33.78
2022-08-17T00:08:03.979Z,30.23
2022-08-17T00:10:32.416Z,30.40
2022-08-17T00:13:00.694Z,28.10
2022-08-17T00:15:27.913Z,33.78
2022-08-17T00:17:54.943Z,38.55
2022-08-17T00:20:23.443Z,40.08
2022-08-17T00:23:08.763Z,32.35
2022-08-17T00:25:36.264Z,38.83
2022-08-17T00:28:03.834Z,29.55
2022-08-17T00:30:31.126Z,35.13
2022-08-17T00:33:23.764Z,34.05
2022-08-17T00:35:52.105Z,25.80
2022-08-17T00:38:19.674Z,27.50
2022-08-17T00:40:55.841Z,29.15
2022-08-17T00:43:28.917Z,32.47
2022-08-17T00:45:56.558Z,31.83
2022-08-17T00:48:23.933Z,29.38
2022-08-17T00:50:57.701Z,34.97
2022-08-17T00:53:27.306Z,31.67
2022-08-17T00:55:54.590Z,28.85
2022-08-17T00:58:35.738Z,29.83
2022-08-17T01:01:05.313Z,36.10
2022-08-17T01:03:34.358Z,36.42
2022-08-17T01:06:03.035Z,40.72
2022-08-17T01:08:31.696Z,37.00
2022-08-17T01:11:05.386Z,29.23
2022-08-17T01:13:40.979Z,33.05
2022-08-17T01:16:26.264Z,37.90
2022-08-17T01:19:05.308Z,31.90
2022-08-17T01:21:55.410Z,35.88
2022-08-17T01:24:22.509Z,40.22
2022-08-17T01:26:49.944Z,36.05
2022-08-17T01:29:20.214Z,33.05
2022-08-17T01:31:55.659Z,41.42
2022-08-17T01:34:24.925Z,48.63
2022-08-17T01:37:03.917Z,33.65
2022-08-17T01:39:45.151Z,29.15
2022-08-17T01:42:23.904Z,35.78
2022-08-17T01:44:57.056Z,37.08
2022-08-17T01:47:24.237Z,33.10
2022-08-17T01:49:51.230Z,29.63
2022-08-17T01:52:18.954Z,29.20
2022-08-17T01:54:47.899Z,32.42
2022-08-17T01:57:15.011Z,31.92
2022-08-17T01:59:42.401Z,33.38
2022-08-17T02:02:09.392Z,47.42
2022-08-17T02:04:36.767Z,38.30
2022-08-17T02:07:03.986Z,29.67
2022-08-17T02:09:31.633Z,34.88
2022-08-17T02:12:37.312Z,32.35
2022-08-17T02:14:48.266Z,34.35
2022-08-17T02:17:15.335Z,31.35
2022-08-17T02:19:42.265Z,36.22
2022-08-17T02:22:10.332Z,43.80
2022-08-17T02:25:00.784Z,51.60
2022-08-17T02:27:25.604Z,47.65
2022-08-17T02:29:52.588Z,52.30
2022-08-17T02:32:27.727Z,46.20
2022-08-17T02:34:58.437Z,36.45
2022-08-17T02:37:26.898Z,57.33
2022-08-17T02:39:54.246Z,59.58
2022-08-17T02:42:29.220Z,32.95
2022-08-17T02:44:56.208Z,34.25
2022-08-17T02:47:24.666Z,48.60
2022-08-17T02:49:55.440Z,38.17
2022-08-17T02:52:43.003Z,173.38
2022-08-17T02:55:14.890Z,33.13
2022-08-17T02:57:42.390Z,31.20
2022-08-17T03:00:21.312Z,36.95
2022-08-17T03:02:49.746Z,37.72
2022-08-17T03:05:23.066Z,37.00
2022-08-17T03:07:50.740Z,37.97
2022-08-17T03:10:19.002Z,39.35
2022-08-17T03:12:46.967Z,43.65
2022-08-17T03:15:26.463Z,43.67
2022-08-17T03:17:54.846Z,41.33
2022-08-17T03:20:22.636Z,47.08
2022-08-17T03:22:53.543Z,40.30
2022-08-17T03:25:34.402Z,42.88
2022-08-17T03:28:02.688Z,56.05
2022-08-17T03:30:30.633Z,39.92
2022-08-17T03:33:03.066Z,37.25
2022-08-17T03:35:32.576Z,58.20
2022-08-17T03:38:01.300Z,35.22
2022-08-17T03:40:55.038Z,42.67
2022-08-17T03:43:17.658Z,37.50
2022-08-17T03:46:02.910Z,47.65
2022-08-17T03:48:49.378Z,44.72
2022-08-17T03:51:55.797Z,37.50
2022-08-17T03:54:41.764Z,38.08
2022-08-17T03:57:10.763Z,36.53
2022-08-17T03:59:39.074Z,36.45
2022-08-17T04:02:13.043Z,39.25
2022-08-17T04:04:40.441Z,42.15
2022-08-17T04:07:07.768Z,40.03
2022-08-17T04:09:36.226Z,49.25
2022-08-17T04:12:05.268Z,55.88
2022-08-17T04:14:53.521Z,47.22
2022-08-17T04:17:24.677Z,50.33
2022-08-17T04:19:53.036Z,43.97
2022-08-17T04:22:31.882Z,86.70
2022-08-17T04:25:04.800Z,67.63
2022-08-17T04:27:32.138Z,50.35
2022-08-17T04:29:59.033Z,57.60
2022-08-17T04:33:04.851Z,55.65
2022-08-17T04:35:18.253Z,50.40
2022-08-17T04:37:45.530Z,50.40
2022-08-17T04:40:31.127Z,44.78
2022-08-17T04:43:03.680Z,50.90
2022-08-17T04:45:32.217Z,46.58
2022-08-17T04:48:00.683Z,77.82
2022-08-17T04:50:27.949Z,46.88
2022-08-17T04:52:56.804Z,47.50
2022-08-17T04:55:24.361Z,47.65
2022-08-17T04:57:51.263Z,38.08
2022-08-17T05:00:18.407Z,41.92
2022-08-17T05:02:49.657Z,40.30
2022-08-17T05:05:22.273Z,41.83
2022-08-17T05:07:54.776Z,40.45
2022-08-17T05:10:26.598Z,41.40
2022-08-17T05:13:07.400Z,36.88
2022-08-17T05:15:36.798Z,35.20
2022-08-17T05:18:04.886Z,38.22
2022-08-17T05:20:32.916Z,33.45
2022-08-17T05:23:04.593Z,39.30
2022-08-17T05:25:36.181Z,37.95
2022-08-17T05:28:05.317Z,33.30
2022-08-17T05:30:34.843Z,41.05
2022-08-17T05:33:16.744Z,34.47
2022-08-17T05:35:47.707Z,32.85
2022-08-17T05:38:16.521Z,39.60
2022-08-17T05:40:43.993Z,40.85
2022-08-17T05:43:16.225Z,42.72
2022-08-17T05:45:55.362Z,41.53
2022-08-17T05:48:36.761Z,36.80
2022-08-17T05:51:12.650Z,38.78
2022-08-17T05:53:42.947Z,44.28
2022-08-17T05:56:34.512Z,46.90
2022-08-17T05:59:22.953Z,39.35
2022-08-17T06:01:58.906Z,41.50
2022-08-17T06:04:31.937Z,43.88
2022-08-17T06:07:12.720Z,43.05
2022-08-17T06:09:49.249Z,44.50
2022-08-17T06:12:40.366Z,37.25
2022-08-17T06:15:26.196Z,43.08
2022-08-17T06:18:02.091Z,38.63
2022-08-17T06:20:38.614Z,37.33
2022-08-17T06:23:10.719Z,42.17
2022-08-17T06:25:52.839Z,36.95
2022-08-17T06:28:34.378Z,34.92
2022-08-17T06:31:12.654Z,40.13
2022-08-17T06:33:40.419Z,36.55
2022-08-17T06:36:17.660Z,36.60
2022-08-17T06:39:13.387Z,28.77
2022-08-17T06:42:03.647Z,33.65
2022-08-17T06:44:42.335Z,33.75
2022-08-17T06:47:31.686Z,32.63
2022-08-17T06:50:19.526Z,32.72
2022-08-17T06:53:25.161Z,37.70
2022-08-17T06:56:09.680Z,36.17
2022-08-17T06:58:40.279Z,33.78
2022-08-17T07:01:24.965Z,31.45
2022-08-17T07:03:57.958Z,32.83
2022-08-17T07:06:33.215Z,30.48
2022-08-17T07:09:18.685Z,31.55
2022-08-17T07:12:04.495Z,29.88
2022-08-17T07:14:43.232Z,30.25
2022-08-17T07:17:17.318Z,23.92
2022-08-17T07:19:49.075Z,21.55
2022-08-17T07:22:59.624Z,27.08
2022-08-17T07:25:30.781Z,22.98
2022-08-17T07:28:02.451Z,25.50
2022-08-17T07:30:47.719Z,22.42
2022-08-17T07:33:20.363Z,22.08
2022-08-17T07:35:48.490Z,21.52
2022-08-17T07:38:24.920Z,19.67
2022-08-17T07:41:06.213Z,19.65
2022-08-17T07:43:39.293Z,18.75
2022-08-17T07:46:38.797Z,20.10
2022-08-17T07:49:12.623Z,19.27
2022-08-17T07:51:55.428Z,20.27
2022-08-17T07:54:39.488Z,18.75
2022-08-17T07:57:15.332Z,26.58
2022-08-17T08:00:03.402Z,21.63
2022-08-17T08:02:43.752Z,21.17
2022-08-17T08:05:29.938Z,19.33
2022-08-17T08:08:42.399Z,19.48
2022-08-17T08:11:15.210Z,19.02
2022-08-17T08:13:45.694Z,19.58
2022-08-17T08:16:27.141Z,23.35
2022-08-17T08:18:58.333Z,20.67
2022-08-17T08:21:50.438Z,20.27
2022-08-17T08:24:36.703Z,22.83
2022-08-17T08:27:39.199Z,18.92
2022-08-17T08:30:14.522Z,18.05
2022-08-17T08:32:57.220Z,19.38
2022-08-17T08:35:50.582Z,17.85
2022-08-17T08:38:23.572Z,18.40
2022-08-17T08:40:50.655Z,15.73
2022-08-17T08:43:38.820Z,20.75
2022-08-17T08:46:19.617Z,13.65
2022-08-17T08:49:12.086Z,17.35
2022-08-17T08:51:51.658Z,13.43
2022-08-17T08:54:39.002Z,13.82
2022-08-17T09:00:22.671Z,12.65
2022-08-17T09:03:14.543Z,14.52
2022-08-17T09:06:37.840Z,12.27
2022-08-17T09:09:30.715Z,14.70
2022-08-17T09:12:14.013Z,11.82
2022-08-17T09:14:51.545Z,11.13
2022-08-17T09:17:39.008Z,11.57
2022-08-17T09:20:27.935Z,12.35
2022-08-17T09:23:08.065Z,10.73
2022-08-17T09:25:49.736Z,14.75
2022-08-17T09:28:24.185Z,11.02
2022-08-17T09:30:56.152Z,14.60
2022-08-17T09:33:29.056Z,10.25
2022-08-17T09:36:02.392Z,11.82
2022-08-17T09:39:04.083Z,12.18
2022-08-17T09:41:56.195Z,13.48
2022-08-17T09:44:48.792Z,13.13
2022-08-17T09:47:30.579Z,11.18
2022-08-17T09:51:03.634Z,11.35
2022-08-17T09:53:09.631Z,9.82
2022-08-17T09:56:13.626Z,8.93
2022-08-17T09:59:05.658Z,9.70
2022-08-17T10:01:58.046Z,9.68
2022-08-17T10:04:32.717Z,10.95
2022-08-17T10:07:07.484Z,13.68
2022-08-17T10:09:55.818Z,8.82
2022-08-17T10:12:38.959Z,10.13
2022-08-17T10:15:33.513Z,12.15
2022-08-17T10:18:25.465Z,10.77
2022-08-17T10:21:27.747Z,12.90
2022-08-17T10:24:31.171Z,10.15
2022-08-17T10:27:01.180Z,10.60
2022-08-17T10:29:38.258Z,9.73
2022-08-17T10:32:46.187Z,11.90
2022-08-17T10:35:33.028Z,9.40
2022-08-17T10:38:15.447Z,7.28
2022-08-17T10:41:38.212Z,7.22
2022-08-17T10:44:38.353Z,8.73
2022-08-17T10:47:09.626Z,9.90
2022-08-17T10:49:47.977Z,17.20
2022-08-17T10:52:26.231Z,10.77
2022-08-17T10:54:58.106Z,9.48
2022-08-17T10:57:31.844Z,9.57
2022-08-17T11:00:01.036Z,11.15
2022-08-17T11:02:51.245Z,8.80
2022-08-17T11:05:41.491Z,11.43
2022-08-17T11:08:32.232Z,10.27
2022-08-17T11:11:17.854Z,9.20
2022-08-17T11:14:24.039Z,8.93
2022-08-17T11:17:09.295Z,10.82
2022-08-17T11:20:09.049Z,11.00
2022-08-17T11:23:10.163Z,9.82
2022-08-17T11:25:47.087Z,10.07
2022-08-17T11:28:17.970Z,11.98
2022-08-17T11:30:49.748Z,11.65
2022-08-17T11:33:36.919Z,9.60
2022-08-17T11:36:30.419Z,11.60
2022-08-17T11:39:23.115Z,12.13
2022-08-17T11:42:05.878Z,10.10
2022-08-17T11:44:57.908Z,16.30
2022-08-17T11:48:25.960Z,12.13
2022-08-17T11:51:17.888Z,13.40
2022-08-17T11:53:45.891Z,11.15
2022-08-17T11:56:50.876Z,12.65
2022-08-17T11:59:32.902Z,11.98
2022-08-17T12:02:02.223Z,10.85
2022-08-17T12:04:34.560Z,9.98
2022-08-17T12:07:18.506Z,13.15
2022-08-17T12:09:49.248Z,8.68
2022-08-17T12:12:20.135Z,7.82
2022-08-17T12:15:11.355Z,7.68
2022-08-17T12:17:42.720Z,10.60
2022-08-17T12:20:19.773Z,9.07
2022-08-17T12:23:04.472Z,9.50
2022-08-17T12:25:34.112Z,11.15
2022-08-17T12:28:05.990Z,14.50
2022-08-17T12:30:35.687Z,8.98
2022-08-17T12:33:02.881Z,8.43
2022-08-17T12:35:36.295Z,6.30
2022-08-17T12:38:32.665Z,6.28
2022-08-17T12:40:57.974Z,9.43
2022-08-17T12:43:31.149Z,11.57
2022-08-17T12:46:13.500Z,11.00
2022-08-17T12:48:58.799Z,11.60
2022-08-17T12:51:29.016Z,6.85
2022-08-17T12:53:56.266Z,6.47
2022-08-17T12:56:23.334Z,6.85
2022-08-17T12:58:55.600Z,8.05
2022-08-17T13:01:25.112Z,7.55
2022-08-17T13:03:55.140Z,10.35
2022-08-17T13:06:32.144Z,11.98
2022-08-17T13:09:12.209Z,10.43
2022-08-17T13:11:51.365Z,8.65
2022-08-17T13:14:19.148Z,14.70
2022-08-17T13:16:52.774Z,8.23
2022-08-17T13:19:38.855Z,7.65
2022-08-17T13:22:11.027Z,9.40
2022-08-17T13:24:38.773Z,7.35
2022-08-17T13:27:09.897Z,9.68
2022-08-17T13:29:39.845Z,9.00
2022-08-17T13:32:12.969Z,13.50
2022-08-17T13:35:14.198Z,8.75
2022-08-17T13:37:35.606Z,7.90
2022-08-17T13:40:11.452Z,8.07
2022-08-17T13:42:55.648Z,7.90
2022-08-17T13:45:36.791Z,10.77
2022-08-17T13:48:11.128Z,8.20
2022-08-17T13:51:15.392Z,10.75
2022-08-17T13:53:42.298Z,9.05
2022-08-17T13:56:37.983Z,8.25
2022-08-17T13:59:53.239Z,11.73
2022-08-17T14:02:20.817Z,8.35
2022-08-17T14:04:48.685Z,9.15
2022-08-17T14:07:16.070Z,7.30
2022-08-17T14:09:52.036Z,11.10
2022-08-17T14:12:24.976Z,9.20
2022-08-17T14:14:54.892Z,12.77
2022-08-17T14:17:23.384Z,16.40
2022-08-17T14:19:50.989Z,9.43
2022-08-17T14:22:24.008Z,10.15
2022-08-17T14:24:54.298Z,6.72
2022-08-17T14:27:21.642Z,8.85
2022-08-17T14:29:48.863Z,9.63
2022-08-17T14:32:26.735Z,10.30
2022-08-17T14:34:56.708Z,11.77
2022-08-17T14:37:26.312Z,9.93
2022-08-17T14:39:58.562Z,13.15
2022-08-17T14:42:27.744Z,8.30
2022-08-17T14:44:56.206Z,9.32
2022-08-17T14:47:23.088Z,10.52
2022-08-17T14:49:50.045Z,9.93
2022-08-17T14:52:21.504Z,10.55
2022-08-17T14:54:51.287Z,8.32
2022-08-17T14:57:24.612Z,9.00
2022-08-17T15:00:01.689Z,10.90
2022-08-17T15:02:29.958Z,9.48
2022-08-17T15:05:05.482Z,8.95
2022-08-17T15:07:32.549Z,9.70
2022-08-17T15:10:01.338Z,11.10
2022-08-17T15:12:33.211Z,9.45
2022-08-17T15:15:04.568Z,9.43
2022-08-17T15:17:44.677Z,10.27
2022-08-17T15:20:16.751Z,9.35
2022-08-17T15:22:45.098Z,8.70
2022-08-17T15:25:13.086Z,12.32
2022-08-17T15:27:40.400Z,11.32
2022-08-17T15:30:10.033Z,6.50
2022-08-17T15:32:40.575Z,10.05
2022-08-17T15:35:11.723Z,8.63
2022-08-17T15:37:40.182Z,8.30
2022-08-17T15:40:09.070Z,11.88
2022-08-17T15:42:36.646Z,10.73
2022-08-17T15:45:07.112Z,8.30
2022-08-17T15:47:34.261Z,11.32
2022-08-17T15:50:01.415Z,10.45
2022-08-17T15:52:31.892Z,17.50
2022-08-17T15:55:01.075Z,11.20
2022-08-17T15:57:28.263Z,11.02
2022-08-17T15:59:58.476Z,9.75
2022-08-17T16:03:14.736Z,11.90
2022-08-17T16:05:24.041Z,11.45
2022-08-17T16:07:52.485Z,13.70
2022-08-17T16:10:19.794Z,11.40
2022-08-17T16:12:48.577Z,10.73
2022-08-17T16:15:16.220Z,17.45
2022-08-17T16:17:43.629Z,10.90
2022-08-17T16:20:20.109Z,10.65
2022-08-17T16:22:49.514Z,9.05
2022-08-17T16:25:20.149Z,10.02
2022-08-17T16:27:50.346Z,9.75
2022-08-17T16:30:18.208Z,12.90
2022-08-17T16:32:46.243Z,12.10
2022-08-17T16:35:17.426Z,15.40
2022-08-17T16:37:45.674Z,11.25
2022-08-17T16:40:15.467Z,15.63
2022-08-17T16:42:43.302Z,14.77
2022-08-17T16:45:14.634Z,13.15
2022-08-17T16:47:41.989Z,15.17
2022-08-17T16:50:11.684Z,11.93
2022-08-17T16:52:39.854Z,15.73
2022-08-17T16:55:09.370Z,16.63
2022-08-17T16:57:47.400Z,17.98
2022-08-17T17:00:19.608Z,13.68
2022-08-17T17:02:48.357Z,10.77
2022-08-17T17:05:22.160Z,11.15
2022-08-17T17:08:01.007Z,15.25
2022-08-17T17:10:37.458Z,11.65
2022-08-17T17:13:12.399Z,13.77
2022-08-17T17:15:50.457Z,13.63
2022-08-17T17:18:20.920Z,15.30
2022-08-17T17:20:55.836Z,17.80
2022-08-17T17:23:55.105Z,17.85
2022-08-17T17:26:40.299Z,17.52
2022-08-17T17:29:47.146Z,16.75
2022-08-17T17:32:32.389Z,17.83
2022-08-17T17:35:09.966Z,14.55
2022-08-17T17:37:39.892Z,17.98
2022-08-17T17:40:15.155Z,13.15
2022-08-17T17:42:44.046Z,22.23
2022-08-17T17:45:20.124Z,15.90
2022-08-17T17:47:47.478Z,11.57
2022-08-17T17:50:17.855Z,14.27
2022-08-17T17:53:02.988Z,14.93
2022-08-17T17:55:33.233Z,13.95
2022-08-17T17:58:19.639Z,15.05
2022-08-17T18:00:54.877Z,17.08
2022-08-17T18:03:51.010Z,17.00
2022-08-17T18:06:33.989Z,16.10
2022-08-17T18:09:08.679Z,13.68
2022-08-17T18:11:51.573Z,12.32
2022-08-17T18:14:30.586Z,17.52
2022-08-17T18:16:59.674Z,13.82
2022-08-17T18:19:28.224Z,14.88
2022-08-17T18:22:14.010Z,16.60
2022-08-17T18:24:45.710Z,25.50
2022-08-17T18:27:23.315Z,19.75
2022-08-17T18:29:53.487Z,24.25
2022-08-17T18:32:25.890Z,21.20
2022-08-17T18:35:01.186Z,16.88
2022-08-17T18:37:33.996Z,17.27
2022-08-17T18:40:16.432Z,17.48
2022-08-17T18:42:58.307Z,25.95
2022-08-17T18:45:49.182Z,23.50
2022-08-17T18:48:48.748Z,17.05
2022-08-17T18:51:39.701Z,24.20
2022-08-17T18:54:21.196Z,25.33
2022-08-17T18:56:49.918Z,29.05
2022-08-17T18:59:27.809Z,25.85
2022-08-17T19:02:22.058Z,24.23
2022-08-17T19:05:02.110Z,24.00
2022-08-17T19:07:33.195Z,26.58
2022-08-17T19:10:23.836Z,23.85
2022-08-17T19:13:01.125Z,26.30
2022-08-17T19:15:35.843Z,25.70
2022-08-17T19:18:16.268Z,24.75
2022-08-17T19:20:56.216Z,22.58
2022-08-17T19:23:31.563Z,20.98
2022-08-17T19:26:01.682Z,20.67
2022-08-17T19:28:38.248Z,25.27
2022-08-17T19:31:28.691Z,29.80
2022-08-17T19:33:57.081Z,20.45
2022-08-17T19:36:43.002Z,22.23
2022-08-17T19:39:38.610Z,30.20
2022-08-17T19:42:31.112Z,34.00
2022-08-17T19:45:20.701Z,34.92
2022-08-17T19:48:09.399Z,36.80
2022-08-17T19:50:58.939Z,42.40
2022-08-17T19:54:04.237Z,54.70
2022-08-17T19:56:49.037Z,28.42
2022-08-17T19:59:18.589Z,26.88
2022-08-17T20:02:01.290Z,23.75
2022-08-17T20:04:31.934Z,25.48
2022-08-17T20:07:06.153Z,21.98
2022-08-17T20:09:44.548Z,19.13
2022-08-17T20:12:19.287Z,22.55
2022-08-17T20:14:57.258Z,23.02
2022-08-17T20:17:34.481Z,20.45
2022-08-17T20:20:26.017Z,21.98
2022-08-17T20:23:15.905Z,22.10
2022-08-17T20:26:20.273Z,22.48
2022-08-17T20:29:13.861Z,25.65
2022-08-17T20:31:51.834Z,21.98
2022-08-17T20:34:30.890Z,24.38
2022-08-17T20:37:44.255Z,22.05
2022-08-17T20:40:19.273Z,22.88
2022-08-17T20:42:46.515Z,26.48
2022-08-17T20:45:26.200Z,23.10
2022-08-17T20:48:35.079Z,19.35
2022-08-17T20:50:57.614Z,22.73
2022-08-17T20:53:49.551Z,26.52
2022-08-17T20:56:44.392Z,27.23
2022-08-17T20:59:20.473Z,28.13
2022-08-17T21:02:08.910Z,31.88
2022-08-17T21:04:50.321Z,32.45
2022-08-17T21:07:25.600Z,24.98
2022-08-17T21:09:52.770Z,28.45
2022-08-17T21:12:42.463Z,27.55
2022-08-17T21:15:27.442Z,26.20
2022-08-17T21:17:59.178Z,24.85
2022-08-17T21:20:32.538Z,28.95
2022-08-17T21:23:18.502Z,26.50
2022-08-17T21:25:54.462Z,26.83
2022-08-17T21:28:34.512Z,25.15
2022-08-17T21:31:08.981Z,26.60
2022-08-17T21:33:38.684Z,25.10
2022-08-17T21:36:16.039Z,26.08
2022-08-17T21:38:51.540Z,25.65
2022-08-17T21:41:27.406Z,24.05
2022-08-17T21:44:10.937Z,23.67
2022-08-17T21:46:43.015Z,22.10
2022-08-17T21:49:19.445Z,28.65
2022-08-17T21:51:54.159Z,23.98
2022-08-17T21:54:38.682Z,20.88
2022-08-17T21:57:16.751Z,26.48
2022-08-17T21:59:44.686Z,24.83
2022-08-17T22:02:26.982Z,26.80
2022-08-17T22:05:13.238Z,27.92
2022-08-17T22:07:50.941Z,23.08
2022-08-17T22:10:38.690Z,31.83
2022-08-17T22:13:17.018Z,23.83
2022-08-17T22:16:28.088Z,27.38
2022-08-17T22:18:58.913Z,25.38
2022-08-17T22:21:26.818Z,23.30
2022-08-17T22:24:04.840Z,28.98
2022-08-17T22:27:02.960Z,24.55
2022-08-17T22:29:57.653Z,27.25
2022-08-17T22:32:37.327Z,26.40
2022-08-17T22:35:26.257Z,24.73
2022-08-17T22:37:53.410Z,23.55
2022-08-17T22:40:32.495Z,24.05
2022-08-17T22:43:03.445Z,25.73
2022-08-17T22:45:31.249Z,24.80
2022-08-17T22:48:02.156Z,24.10
2022-08-17T22:50:31.632Z,24.48
2022-08-17T22:53:30.337Z,27.27
2022-08-17T22:56:16.693Z,24.35
2022-08-17T22:59:11.008Z,24.17
2022-08-17T23:01:39.616Z,22.38
2022-08-17T23:04:08.297Z,25.52
2022-08-17T23:06:37.086Z,22.17
2022-08-17T23:09:06.467Z,21.70
2022-08-17T23:11:49.076Z,25.08
2022-08-17T23:14:19.723Z,27.40
2022-08-17T23:16:47.707Z,23.35
2022-08-17T23:19:18.028Z,28.40
2022-08-17T23:21:46.085Z,31.27
2022-08-17T23:24:24.272Z,27.33
2022-08-17T23:26:52.327Z,31.02
2022-08-17T23:29:21.386Z,28.83
2022-08-17T23:31:49.678Z,29.23
2022-08-17T23:34:18.544Z,30.88
2022-08-17T23:36:54.957Z,30.45
2022-08-17T23:39:24.493Z,32.60
2022-08-17T23:41:58.193Z,27.02
2022-08-17T23:44:26.513Z,26.60
2022-08-17T23:46:53.990Z,28.15
2022-08-17T23:49:21.345Z,28.98
2022-08-17T23:51:49.430Z,30.15
2022-08-17T23:54:33.752Z,34.10
2022-08-17T23:57:02.359Z,32.97
2022-08-17T23:59:29.339Z,28.83
